This is the latest recevied weather packets stored in our database for station/object KF4CQ. If no packets are shown the sender has not sent any weather packets the latest 10 day(s).
| Time | Temp. | Humidity | Pressure | Rain* | Wind** | Luminosity | Snow |
|---|---|---|---|---|---|---|---|
| 1778011640 | 30.56° C | 45% | 1015.9 hPa | 0 mm | - | 330 W/m² | - |
| 1778011337 | 30.56° C | 46% | 1015.7 hPa | 0 mm | - | 419 W/m² | - |
| 1778011032 | 29.44° C | 47% | 1015.8 hPa | 0 mm | - | 443 W/m² | - |
| 1778010730 | 30° C | 46% | 1016.1 hPa | 0 mm | - | 188 W/m² | - |
| 1778010427 | 29.44° C | 47% | 1016.1 hPa | 0 mm | - | 366 W/m² | - |
| 1778010123 | 29.44° C | 47% | 1016.2 hPa | 0 mm | - | 137 W/m² | - |
| 1778009819 | 29.44° C | 48% | 1016.2 hPa | 0 mm | - | 532 W/m² | - |
| 1778009517 | 28.89° C | 49% | 1016.2 hPa | 0 mm | - | 433 W/m² | - |
| 1778009215 | 28.89° C | 48% | 1016.4 hPa | 0 mm | - | 181 W/m² | - |
| 1778008912 | 29.44° C | 48% | 1016.3 hPa | 0 mm | - | 171 W/m² | - |
| 1778008611 | 29.44° C | 48% | 1016.6 hPa | 0 mm | - | 157 W/m² | - |
| 1778008309 | 29.44° C | 49% | 1016.4 hPa | 0 mm | - | 433 W/m² | - |
| 1778008005 | 30° C | 48% | 1016.5 hPa | 0 mm | - | 265 W/m² | - |
| 1778007704 | 30.56° C | 48% | 1016.6 hPa | 0 mm | - | 283 W/m² | - |
| 1778007401 | 31.67° C | 45% | 1016.5 hPa | 0 mm | - | 287 W/m² | - |
| 1778007097 | 30.56° C | 47% | 1016.7 hPa | 0 mm | - | 545 W/m² | - |
| 1778006794 | 29.44° C | 49% | 1016.9 hPa | 0 mm | - | 600 W/m² | - |
| 1778006491 | 30° C | 47% | 1016.8 hPa | 0 mm | - | 665 W/m² | - |
| 1778006188 | 30.56° C | 47% | 1016.8 hPa | 0 mm | - | 423 W/m² | - |
| 1778005886 | 30.56° C | 45% | 1016.9 hPa | 0 mm | - | 376 W/m² | - |
| 1778005582 | 31.11° C | 46% | 1017 hPa | 0 mm | - | 238 W/m² | - |
| 1778005279 | 30.56° C | 47% | 1017 hPa | 0 mm | - | 281 W/m² | - |
| 1778004975 | 29.44° C | 48% | 1017 hPa | 0 mm | - | 660 W/m² | - |
| 1778004673 | 28.33° C | 50% | 1017.1 hPa | 0 mm | - | 192 W/m² | - |
| 1778004368 | 27.78° C | 53% | 1017.4 hPa | 0 mm | - | 171 W/m² | - |
* Rain latest hour (hover to see other rain measurements)
** Current wind speed in m/s (hover to see current wind gust speed)